sensor_id;sensor_type;location;lat;lon;timestamp;pressure;altitude;pressure_sealevel;temperature;humidity
24620;BME280;12763;55.802;37.404;2022-07-23T00:01:41;99444.84;;;23.10;58.99
24620;BME280;12763;55.802;37.404;2022-07-23T00:04:07;99437.53;;;23.09;59.25
24620;BME280;12763;55.802;37.404;2022-07-23T00:06:36;99445.00;;;23.00;60.41
24620;BME280;12763;55.802;37.404;2022-07-23T00:09:26;99442.88;;;22.87;62.07
24620;BME280;12763;55.802;37.404;2022-07-23T00:12:43;99445.59;;;22.73;61.75
24620;BME280;12763;55.802;37.404;2022-07-23T00:19:18;99451.28;;;22.45;63.47
24620;BME280;12763;55.802;37.404;2022-07-23T00:22:34;99449.47;;;22.54;63.04
24620;BME280;12763;55.802;37.404;2022-07-23T00:25:01;99451.47;;;22.53;62.85
24620;BME280;12763;55.802;37.404;2022-07-23T00:27:34;99456.31;;;22.48;63.71
24620;BME280;12763;55.802;37.404;2022-07-23T00:30:35;99457.88;;;22.30;64.58
24620;BME280;12763;55.802;37.404;2022-07-23T00:33:07;99453.13;;;22.02;66.29
24620;BME280;12763;55.802;37.404;2022-07-23T00:36:10;99455.31;;;21.71;68.04
24620;BME280;12763;55.802;37.404;2022-07-23T00:38:51;99459.91;;;21.57;68.80
24620;BME280;12763;55.802;37.404;2022-07-23T00:41:32;99451.13;;;21.30;69.75
24620;BME280;12763;55.802;37.404;2022-07-23T00:44:26;99456.50;;;21.21;70.13
24620;BME280;12763;55.802;37.404;2022-07-23T00:47:14;99455.06;;;20.75;72.36
24620;BME280;12763;55.802;37.404;2022-07-23T00:49:46;99459.19;;;20.92;72.07
24620;BME280;12763;55.802;37.404;2022-07-23T00:52:19;99469.22;;;21.03;71.54
24620;BME280;12763;55.802;37.404;2022-07-23T00:54:48;99467.44;;;21.28;70.43
24620;BME280;12763;55.802;37.404;2022-07-23T00:57:26;99459.31;;;21.26;71.02
24620;BME280;12763;55.802;37.404;2022-07-23T01:03:21;99461.69;;;21.48;69.95
24620;BME280;12763;55.802;37.404;2022-07-23T01:05:48;99463.63;;;21.52;69.66
24620;BME280;12763;55.802;37.404;2022-07-23T01:08:32;99463.56;;;21.57;69.98
24620;BME280;12763;55.802;37.404;2022-07-23T01:11:08;99461.97;;;21.46;70.06
24620;BME280;12763;55.802;37.404;2022-07-23T01:13:42;99465.34;;;21.43;69.86
24620;BME280;12763;55.802;37.404;2022-07-23T01:16:08;99465.13;;;21.40;69.89
24620;BME280;12763;55.802;37.404;2022-07-23T01:18:38;99465.94;;;21.40;69.99
24620;BME280;12763;55.802;37.404;2022-07-23T01:21:18;99464.59;;;21.33;70.80
24620;BME280;12763;55.802;37.404;2022-07-23T01:23:50;99465.50;;;21.23;70.98
24620;BME280;12763;55.802;37.404;2022-07-23T01:26:23;99468.59;;;21.22;70.96
24620;BME280;12763;55.802;37.404;2022-07-23T01:28:56;99463.31;;;21.15;71.43
24620;BME280;12763;55.802;37.404;2022-07-23T01:31:23;99456.31;;;21.13;71.26
24620;BME280;12763;55.802;37.404;2022-07-23T01:35:21;99454.09;;;21.10;71.94
24620;BME280;12763;55.802;37.404;2022-07-23T01:37:54;99454.91;;;21.05;72.12
24620;BME280;12763;55.802;37.404;2022-07-23T01:40:36;99451.25;;;21.15;72.11
24620;BME280;12763;55.802;37.404;2022-07-23T01:43:05;99452.31;;;21.19;71.64
24620;BME280;12763;55.802;37.404;2022-07-23T01:46:06;99449.53;;;21.19;71.75
24620;BME280;12763;55.802;37.404;2022-07-23T01:48:38;99451.47;;;21.23;72.41
24620;BME280;12763;55.802;37.404;2022-07-23T01:52:02;99444.22;;;21.17;72.04
24620;BME280;12763;55.802;37.404;2022-07-23T01:55:07;99456.63;;;21.01;71.99
24620;BME280;12763;55.802;37.404;2022-07-23T01:57:37;99457.75;;;21.00;72.67
24620;BME280;12763;55.802;37.404;2022-07-23T02:00:05;99449.06;;;21.01;72.65
24620;BME280;12763;55.802;37.404;2022-07-23T02:07:07;99445.66;;;21.04;72.59
24620;BME280;12763;55.802;37.404;2022-07-23T02:09:36;99451.28;;;20.99;72.98
24620;BME280;12763;55.802;37.404;2022-07-23T02:12:17;99447.38;;;21.00;73.37
24620;BME280;12763;55.802;37.404;2022-07-23T02:15:18;99442.88;;;20.99;73.73
24620;BME280;12763;55.802;37.404;2022-07-23T02:21:09;99452.41;;;21.03;73.18
24620;BME280;12763;55.802;37.404;2022-07-23T02:23:44;99455.50;;;21.07;73.08
24620;BME280;12763;55.802;37.404;2022-07-23T02:26:13;99454.91;;;21.05;73.09
24620;BME280;12763;55.802;37.404;2022-07-23T02:28:55;99454.09;;;21.10;73.35
24620;BME280;12763;55.802;37.404;2022-07-23T02:31:43;99457.44;;;21.06;73.53
24620;BME280;12763;55.802;37.404;2022-07-23T02:34:29;99452.94;;;21.11;73.48
24620;BME280;12763;55.802;37.404;2022-07-23T02:37:14;99455.09;;;21.24;72.97
24620;BME280;12763;55.802;37.404;2022-07-23T02:39:41;99462.63;;;21.33;72.08
24620;BME280;12763;55.802;37.404;2022-07-23T02:42:07;99459.78;;;21.38;71.77
24620;BME280;12763;55.802;37.404;2022-07-23T02:44:38;99464.78;;;21.46;71.74
24620;BME280;12763;55.802;37.404;2022-07-23T02:47:07;99452.09;;;21.54;71.65
24620;BME280;12763;55.802;37.404;2022-07-23T02:49:36;99457.41;;;21.55;71.14
24620;BME280;12763;55.802;37.404;2022-07-23T02:52:05;99455.50;;;21.46;71.32
24620;BME280;12763;55.802;37.404;2022-07-23T02:54:46;99457.50;;;21.45;71.83
24620;BME280;12763;55.802;37.404;2022-07-23T02:57:21;99457.16;;;21.52;71.44
24620;BME280;12763;55.802;37.404;2022-07-23T03:03:00;99458.78;;;21.58;71.00
24620;BME280;12763;55.802;37.404;2022-07-23T03:05:36;99458.22;;;21.61;70.97
24620;BME280;12763;55.802;37.404;2022-07-23T03:08:07;99459.81;;;21.72;70.35
24620;BME280;12763;55.802;37.404;2022-07-23T03:11:02;99462.22;;;21.89;69.91
24620;BME280;12763;55.802;37.404;2022-07-23T03:13:32;99465.31;;;21.87;69.62
24620;BME280;12763;55.802;37.404;2022-07-23T03:16:10;99464.06;;;22.03;69.29
24620;BME280;12763;55.802;37.404;2022-07-23T03:19:07;99471.41;;;21.99;69.51
24620;BME280;12763;55.802;37.404;2022-07-23T03:21:55;99475.75;;;22.15;68.92
24620;BME280;12763;55.802;37.404;2022-07-23T03:24:54;99468.41;;;22.19;68.50
24620;BME280;12763;55.802;37.404;2022-07-23T03:27:51;99469.84;;;22.17;68.63
24620;BME280;12763;55.802;37.404;2022-07-23T03:31:10;99463.84;;;22.23;68.73
24620;BME280;12763;55.802;37.404;2022-07-23T03:33:52;99463.19;;;22.37;68.02
24620;BME280;12763;55.802;37.404;2022-07-23T03:36:47;99465.34;;;22.45;67.82
24620;BME280;12763;55.802;37.404;2022-07-23T03:39:16;99475.09;;;22.52;67.46
24620;BME280;12763;55.802;37.404;2022-07-23T03:41:43;99470.84;;;22.55;66.94
24620;BME280;12763;55.802;37.404;2022-07-23T03:44:10;99469.66;;;22.61;66.58
24620;BME280;12763;55.802;37.404;2022-07-23T03:47:15;99476.25;;;22.75;66.64
24620;BME280;12763;55.802;37.404;2022-07-23T03:50:05;99469.06;;;22.88;66.22
24620;BME280;12763;55.802;37.404;2022-07-23T03:52:37;99468.09;;;22.97;65.85
24620;BME280;12763;55.802;37.404;2022-07-23T03:55:07;99458.13;;;23.05;65.67
24620;BME280;12763;55.802;37.404;2022-07-23T03:58:00;99467.59;;;23.14;65.10
24620;BME280;12763;55.802;37.404;2022-07-23T04:00:54;99471.88;;;23.30;65.27
24620;BME280;12763;55.802;37.404;2022-07-23T04:03:57;99472.63;;;23.35;64.79
24620;BME280;12763;55.802;37.404;2022-07-23T04:06:39;99475.63;;;23.63;64.17
24620;BME280;12763;55.802;37.404;2022-07-23T04:09:05;99474.84;;;23.76;63.68
24620;BME280;12763;55.802;37.404;2022-07-23T04:11:35;99478.16;;;23.78;63.78
24620;BME280;12763;55.802;37.404;2022-07-23T04:14:08;99468.22;;;23.85;63.15
24620;BME280;12763;55.802;37.404;2022-07-23T04:17:06;99482.75;;;24.25;62.41
24620;BME280;12763;55.802;37.404;2022-07-23T04:19:32;99478.53;;;24.41;61.51
24620;BME280;12763;55.802;37.404;2022-07-23T04:25:30;99472.69;;;24.78;59.78
24620;BME280;12763;55.802;37.404;2022-07-23T04:28:20;99479.09;;;24.84;59.83
24620;BME280;12763;55.802;37.404;2022-07-23T04:30:52;99480.25;;;24.83;59.92
24620;BME280;12763;55.802;37.404;2022-07-23T04:33:20;99474.28;;;24.84;59.59
24620;BME280;12763;55.802;37.404;2022-07-23T04:36:06;99481.19;;;24.92;59.56
24620;BME280;12763;55.802;37.404;2022-07-23T04:38:36;99491.22;;;24.98;59.94
24620;BME280;12763;55.802;37.404;2022-07-23T04:41:36;99489.75;;;25.14;59.58
24620;BME280;12763;55.802;37.404;2022-07-23T04:44:20;99486.72;;;25.24;58.79
24620;BME280;12763;55.802;37.404;2022-07-23T04:47:12;99480.81;;;25.34;58.32
24620;BME280;12763;55.802;37.404;2022-07-23T04:49:47;99482.81;;;25.47;58.08
24620;BME280;12763;55.802;37.404;2022-07-23T04:52:32;99474.09;;;25.57;57.47
24620;BME280;12763;55.802;37.404;2022-07-23T04:55:05;99472.81;;;25.63;56.97
24620;BME280;12763;55.802;37.404;2022-07-23T04:57:37;99469.78;;;25.74;56.87
24620;BME280;12763;55.802;37.404;2022-07-23T05:00:19;99466.25;;;25.90;55.68
24620;BME280;12763;55.802;37.404;2022-07-23T05:02:51;99470.28;;;25.98;55.28
24620;BME280;12763;55.802;37.404;2022-07-23T05:05:48;99466.13;;;26.17;54.82
24620;BME280;12763;55.802;37.404;2022-07-23T05:09:18;99465.91;;;26.36;54.81
24620;BME280;12763;55.802;37.404;2022-07-23T05:11:56;99463.06;;;26.36;54.40
24620;BME280;12763;55.802;37.404;2022-07-23T05:17:51;99470.34;;;26.29;54.73
24620;BME280;12763;55.802;37.404;2022-07-23T05:20:18;99465.19;;;26.08;55.12
24620;BME280;12763;55.802;37.404;2022-07-23T05:24:01;99468.19;;;26.25;54.98
24620;BME280;12763;55.802;37.404;2022-07-23T05:27:13;99463.97;;;26.45;54.10
24620;BME280;12763;55.802;37.404;2022-07-23T05:30:24;99465.41;;;26.65;53.74
24620;BME280;12763;55.802;37.404;2022-07-23T05:37:26;99456.81;;;26.78;53.56
24620;BME280;12763;55.802;37.404;2022-07-23T05:40:31;99459.31;;;26.49;53.94
24620;BME280;12763;55.802;37.404;2022-07-23T05:43:05;99457.25;;;26.72;53.49
24620;BME280;12763;55.802;37.404;2022-07-23T05:45:31;99455.75;;;26.74;53.67
24620;BME280;12763;55.802;37.404;2022-07-23T05:47:58;99459.00;;;26.81;53.58
24620;BME280;12763;55.802;37.404;2022-07-23T05:50:30;99456.03;;;27.04;53.00
24620;BME280;12763;55.802;37.404;2022-07-23T05:53:38;99452.91;;;27.05;52.89
24620;BME280;12763;55.802;37.404;2022-07-23T05:56:45;99452.56;;;27.07;53.11
24620;BME280;12763;55.802;37.404;2022-07-23T05:59:36;99449.97;;;27.27;52.75
24620;BME280;12763;55.802;37.404;2022-07-23T06:06:31;99455.63;;;27.36;52.23
24620;BME280;12763;55.802;37.404;2022-07-23T06:08:59;99455.25;;;27.20;52.48
24620;BME280;12763;55.802;37.404;2022-07-23T06:11:33;99457.44;;;27.23;52.11
24620;BME280;12763;55.802;37.404;2022-07-23T06:14:00;99455.75;;;27.14;52.55
24620;BME280;12763;55.802;37.404;2022-07-23T06:46:09;99449.66;;;28.15;49.43
24620;BME280;12763;55.802;37.404;2022-07-23T06:48:42;99446.16;;;28.18;49.51
24620;BME280;12763;55.802;37.404;2022-07-23T06:51:13;99443.66;;;28.25;49.20
24620;BME280;12763;55.802;37.404;2022-07-23T06:57:39;99444.53;;;28.08;49.52
24620;BME280;12763;55.802;37.404;2022-07-23T07:17:19;99446.06;;;28.98;47.93
24620;BME280;12763;55.802;37.404;2022-07-23T07:19:46;99444.50;;;28.80;47.54
24620;BME280;12763;55.802;37.404;2022-07-23T07:22:20;99447.22;;;28.68;47.99
24620;BME280;12763;55.802;37.404;2022-07-23T07:24:46;99439.78;;;28.84;47.84
24620;BME280;12763;55.802;37.404;2022-07-23T07:27:19;99434.94;;;28.85;47.68
24620;BME280;12763;55.802;37.404;2022-07-23T07:31:12;99439.59;;;29.19;46.55
24620;BME280;12763;55.802;37.404;2022-07-23T07:33:39;99442.44;;;29.19;46.38
24620;BME280;12763;55.802;37.404;2022-07-23T07:36:09;99446.94;;;29.20;46.15
24620;BME280;12763;55.802;37.404;2022-07-23T07:38:36;99440.28;;;29.65;45.27
24620;BME280;12763;55.802;37.404;2022-07-23T08:17:39;99444.97;;;29.91;43.74
24620;BME280;12763;55.802;37.404;2022-07-23T08:20:07;99448.53;;;30.00;43.81
24620;BME280;12763;55.802;37.404;2022-07-23T08:22:44;99443.63;;;29.88;43.20
24620;BME280;12763;55.802;37.404;2022-07-23T08:25:11;99445.84;;;30.03;43.43
24620;BME280;12763;55.802;37.404;2022-07-23T08:27:37;99437.38;;;29.95;43.57
24620;BME280;12763;55.802;37.404;2022-07-23T08:42:30;99433.91;;;30.22;42.40
24620;BME280;12763;55.802;37.404;2022-07-23T08:49:14;99419.88;;;30.05;42.36
24620;BME280;12763;55.802;37.404;2022-07-23T08:51:43;99425.75;;;30.33;41.90
24620;BME280;12763;55.802;37.404;2022-07-23T08:54:10;99422.41;;;30.63;41.11
24620;BME280;12763;55.802;37.404;2022-07-23T08:56:40;99424.94;;;30.65;41.78
24620;BME280;12763;55.802;37.404;2022-07-23T08:59:12;99421.81;;;30.46;42.22
24620;BME280;12763;55.802;37.404;2022-07-23T12:43:30;99284.50;;;39.26;25.19
24620;BME280;12763;55.802;37.404;2022-07-23T12:54:35;99280.41;;;38.32;25.59
24620;BME280;12763;55.802;37.404;2022-07-23T12:57:07;99284.09;;;39.24;25.67
24620;BME280;12763;55.802;37.404;2022-07-23T12:59:33;99287.00;;;40.18;24.54
24620;BME280;12763;55.802;37.404;2022-07-23T13:02:03;99283.88;;;39.81;24.71
24620;BME280;12763;55.802;37.404;2022-07-23T13:04:52;99277.91;;;38.23;26.63
24620;BME280;12763;55.802;37.404;2022-07-23T13:11:18;99280.25;;;39.59;25.44
24620;BME280;12763;55.802;37.404;2022-07-23T13:22:09;99276.28;;;39.00;25.39
24620;BME280;12763;55.802;37.404;2022-07-23T13:24:38;99273.22;;;36.03;28.39
24620;BME280;12763;55.802;37.404;2022-07-23T14:55:48;99220.19;;;37.74;26.25
24620;BME280;12763;55.802;37.404;2022-07-23T15:24:19;99215.03;;;36.09;27.88
24620;BME280;12763;55.802;37.404;2022-07-23T16:01:41;99210.03;;;43.11;21.09
24620;BME280;12763;55.802;37.404;2022-07-23T16:04:08;99210.44;;;42.66;21.48
24620;BME280;12763;55.802;37.404;2022-07-23T16:06:59;99199.97;;;42.92;20.74
24620;BME280;12763;55.802;37.404;2022-07-23T16:13:19;99201.75;;;42.13;22.00
24620;BME280;12763;55.802;37.404;2022-07-23T16:16:12;99197.38;;;42.55;21.64
24620;BME280;12763;55.802;37.404;2022-07-23T16:18:38;99193.91;;;42.63;21.34
24620;BME280;12763;55.802;37.404;2022-07-23T16:21:04;99197.44;;;42.75;21.41
24620;BME280;12763;55.802;37.404;2022-07-23T16:23:30;99198.94;;;42.59;21.50
24620;BME280;12763;55.802;37.404;2022-07-23T16:29:04;99189.72;;;42.41;21.86
24620;BME280;12763;55.802;37.404;2022-07-23T16:31:30;99184.16;;;42.27;21.91
24620;BME280;12763;55.802;37.404;2022-07-23T16:34:06;99199.78;;;41.49;22.28
24620;BME280;12763;55.802;37.404;2022-07-23T16:36:32;99196.03;;;41.19;22.88
24620;BME280;12763;55.802;37.404;2022-07-23T16:39:13;99194.13;;;41.05;22.73
24620;BME280;12763;55.802;37.404;2022-07-23T16:41:39;99192.41;;;40.74;23.16
24620;BME280;12763;55.802;37.404;2022-07-23T16:44:05;99192.19;;;40.95;23.02
24620;BME280;12763;55.802;37.404;2022-07-23T16:46:43;99177.75;;;40.91;23.09
24620;BME280;12763;55.802;37.404;2022-07-23T16:49:09;99190.06;;;40.10;23.86
24620;BME280;12763;55.802;37.404;2022-07-23T16:51:36;99174.66;;;39.65;24.46
24620;BME280;12763;55.802;37.404;2022-07-23T16:54:08;99176.38;;;39.52;24.72
24620;BME280;12763;55.802;37.404;2022-07-23T16:56:46;99174.88;;;39.05;25.04
24620;BME280;12763;55.802;37.404;2022-07-23T17:00:23;99179.91;;;38.73;25.49
24620;BME280;12763;55.802;37.404;2022-07-23T17:03:17;99182.41;;;37.93;27.08
24620;BME280;12763;55.802;37.404;2022-07-23T17:06:07;99174.16;;;37.78;27.04
24620;BME280;12763;55.802;37.404;2022-07-23T17:08:55;99178.00;;;37.09;27.64
24620;BME280;12763;55.802;37.404;2022-07-23T17:11:21;99186.91;;;36.29;28.65
24620;BME280;12763;55.802;37.404;2022-07-23T17:13:47;99184.47;;;35.90;28.97
24620;BME280;12763;55.802;37.404;2022-07-23T17:16:14;99180.97;;;35.34;30.19
24620;BME280;12763;55.802;37.404;2022-07-23T17:19:02;99185.41;;;35.28;30.53
24620;BME280;12763;55.802;37.404;2022-07-23T17:21:53;99173.03;;;35.20;30.17
24620;BME280;12763;55.802;37.404;2022-07-23T17:24:25;99171.94;;;34.72;30.91
24620;BME280;12763;55.802;37.404;2022-07-23T17:27:28;99167.19;;;34.83;31.49
24620;BME280;12763;55.802;37.404;2022-07-23T17:29:57;99180.72;;;33.85;32.15
24620;BME280;12763;55.802;37.404;2022-07-23T17:32:48;99179.81;;;33.01;33.73
24620;BME280;12763;55.802;37.404;2022-07-23T17:35:14;99187.78;;;32.22;34.49
24620;BME280;12763;55.802;37.404;2022-07-23T17:37:41;99188.91;;;32.02;35.16
24620;BME280;12763;55.802;37.404;2022-07-23T17:40:26;99188.13;;;31.74;35.57
24620;BME280;12763;55.802;37.404;2022-07-23T17:43:04;99187.84;;;31.35;36.30
24620;BME280;12763;55.802;37.404;2022-07-23T17:45:32;99188.97;;;31.03;37.14
24620;BME280;12763;55.802;37.404;2022-07-23T17:47:58;99187.09;;;30.83;37.31
24620;BME280;12763;55.802;37.404;2022-07-23T17:50:27;99193.59;;;30.56;38.01
24620;BME280;12763;55.802;37.404;2022-07-23T17:53:08;99192.06;;;30.34;38.43
24620;BME280;12763;55.802;37.404;2022-07-23T17:56:02;99195.63;;;30.07;39.06
24620;BME280;12763;55.802;37.404;2022-07-23T17:58:30;99197.28;;;30.20;38.55
24620;BME280;12763;55.802;37.404;2022-07-23T18:01:05;99192.31;;;30.29;38.88
24620;BME280;12763;55.802;37.404;2022-07-23T18:03:50;99212.81;;;30.22;39.04
24620;BME280;12763;55.802;37.404;2022-07-23T18:06:48;99193.72;;;30.23;39.42
24620;BME280;12763;55.802;37.404;2022-07-23T18:09:25;99197.84;;;30.13;39.19
24620;BME280;12763;55.802;37.404;2022-07-23T18:12:20;99196.81;;;30.06;39.21
24620;BME280;12763;55.802;37.404;2022-07-23T18:14:47;99200.38;;;29.91;39.58
24620;BME280;12763;55.802;37.404;2022-07-23T18:17:20;99194.91;;;29.98;39.66
24620;BME280;12763;55.802;37.404;2022-07-23T18:19:46;99198.69;;;29.90;40.10
24620;BME280;12763;55.802;37.404;2022-07-23T18:22:18;99199.47;;;29.78;40.74
24620;BME280;12763;55.802;37.404;2022-07-23T18:24:48;99206.78;;;29.55;41.13
24620;BME280;12763;55.802;37.404;2022-07-23T18:27:52;99201.31;;;29.50;41.54
24620;BME280;12763;55.802;37.404;2022-07-23T18:30:27;99210.66;;;29.50;41.91
24620;BME280;12763;55.802;37.404;2022-07-23T18:32:52;99207.25;;;29.57;41.83
24620;BME280;12763;55.802;37.404;2022-07-23T18:35:18;99206.72;;;29.31;41.85
24620;BME280;12763;55.802;37.404;2022-07-23T18:37:51;99208.47;;;29.23;42.63
24620;BME280;12763;55.802;37.404;2022-07-23T18:40:18;99211.34;;;29.14;42.62
24620;BME280;12763;55.802;37.404;2022-07-23T18:42:50;99216.34;;;29.18;43.41
24620;BME280;12763;55.802;37.404;2022-07-23T18:45:55;99214.19;;;29.14;43.20
24620;BME280;12763;55.802;37.404;2022-07-23T18:48:23;99225.00;;;29.00;43.09
24620;BME280;12763;55.802;37.404;2022-07-23T19:48:13;99234.75;;;27.74;48.85
24620;BME280;12763;55.802;37.404;2022-07-23T19:50:45;99243.09;;;27.70;48.92
24620;BME280;12763;55.802;37.404;2022-07-23T19:53:45;99244.28;;;27.69;49.02
24620;BME280;12763;55.802;37.404;2022-07-23T19:56:12;99247.81;;;27.58;49.16
24620;BME280;12763;55.802;37.404;2022-07-23T19:58:50;99252.81;;;27.61;49.70
24620;BME280;12763;55.802;37.404;2022-07-23T20:01:32;99249.63;;;27.62;49.64
24620;BME280;12763;55.802;37.404;2022-07-23T20:04:12;99250.63;;;27.66;49.33
24620;BME280;12763;55.802;37.404;2022-07-23T20:06:39;99259.31;;;27.61;49.33
24620;BME280;12763;55.802;37.404;2022-07-23T20:09:14;99250.28;;;27.59;49.47
24620;BME280;12763;55.802;37.404;2022-07-23T20:11:46;99255.09;;;27.67;49.17
24620;BME280;12763;55.802;37.404;2022-07-23T20:14:58;99247.63;;;27.63;49.20
24620;BME280;12763;55.802;37.404;2022-07-23T20:17:24;99249.81;;;27.57;49.56
24620;BME280;12763;55.802;37.404;2022-07-23T20:19:50;99241.31;;;27.57;49.60
24620;BME280;12763;55.802;37.404;2022-07-23T20:22:16;99255.84;;;27.56;49.89
24620;BME280;12763;55.802;37.404;2022-07-23T20:27:55;99254.50;;;27.53;50.12
24620;BME280;12763;55.802;37.404;2022-07-23T20:30:21;99250.19;;;27.47;50.41
24620;BME280;12763;55.802;37.404;2022-07-23T20:32:48;99246.16;;;27.48;50.06
24620;BME280;12763;55.802;37.404;2022-07-23T20:35:14;99238.19;;;27.42;50.49
24620;BME280;12763;55.802;37.404;2022-07-23T20:37:40;99244.53;;;27.21;50.94
24620;BME280;12763;55.802;37.404;2022-07-23T20:40:07;99238.06;;;26.87;51.76
24620;BME280;12763;55.802;37.404;2022-07-23T20:42:34;99233.22;;;26.78;52.09
24620;BME280;12763;55.802;37.404;2022-07-23T20:45:15;99237.22;;;26.95;52.08
24620;BME280;12763;55.802;37.404;2022-07-23T20:47:48;99237.34;;;26.64;53.03
24620;BME280;12763;55.802;37.404;2022-07-23T20:50:14;99247.16;;;26.58;53.28
24620;BME280;12763;55.802;37.404;2022-07-23T20:52:41;99239.66;;;26.53;53.36
24620;BME280;12763;55.802;37.404;2022-07-23T20:55:07;99232.97;;;26.41;53.83
24620;BME280;12763;55.802;37.404;2022-07-23T20:57:33;99236.13;;;26.39;54.03
24620;BME280;12763;55.802;37.404;2022-07-23T21:00:14;99230.97;;;26.41;54.89
24620;BME280;12763;55.802;37.404;2022-07-23T21:02:41;99227.69;;;26.56;54.52
24620;BME280;12763;55.802;37.404;2022-07-23T21:05:19;99222.31;;;26.46;55.48
24620;BME280;12763;55.802;37.404;2022-07-23T21:09:21;99231.66;;;26.47;54.80
24620;BME280;12763;55.802;37.404;2022-07-23T21:11:48;99223.81;;;26.44;54.63
24620;BME280;12763;55.802;37.404;2022-07-23T21:14:39;99231.34;;;26.48;55.37
24620;BME280;12763;55.802;37.404;2022-07-23T21:17:05;99226.66;;;26.52;54.53
24620;BME280;12763;55.802;37.404;2022-07-23T21:19:31;99228.16;;;26.50;55.00
24620;BME280;12763;55.802;37.404;2022-07-23T21:21:57;99214.34;;;26.40;55.15
24620;BME280;12763;55.802;37.404;2022-07-23T21:24:23;99216.34;;;26.39;55.32
24620;BME280;12763;55.802;37.404;2022-07-23T21:26:55;99218.69;;;26.37;55.94
24620;BME280;12763;55.802;37.404;2022-07-23T21:29:43;99210.66;;;26.31;56.27
24620;BME280;12763;55.802;37.404;2022-07-23T21:32:09;99211.00;;;26.20;56.21
24620;BME280;12763;55.802;37.404;2022-07-23T21:35:12;99208.63;;;26.14;57.30
24620;BME280;12763;55.802;37.404;2022-07-23T21:38:10;99209.50;;;25.84;58.14
24620;BME280;12763;55.802;37.404;2022-07-23T21:40:36;99212.25;;;25.66;58.63
24620;BME280;12763;55.802;37.404;2022-07-23T21:43:18;99206.75;;;25.61;60.30
24620;BME280;12763;55.802;37.404;2022-07-23T21:46:09;99210.72;;;25.60;60.03
24620;BME280;12763;55.802;37.404;2022-07-23T21:48:44;99205.72;;;25.57;60.03
24620;BME280;12763;55.802;37.404;2022-07-23T21:51:32;99209.22;;;25.54;60.39
24620;BME280;12763;55.802;37.404;2022-07-23T21:53:58;99198.66;;;25.46;60.15
24620;BME280;12763;55.802;37.404;2022-07-23T21:56:43;99195.13;;;25.41;60.67
24620;BME280;12763;55.802;37.404;2022-07-23T21:59:22;99188.28;;;25.33;61.60
24620;BME280;12763;55.802;37.404;2022-07-23T22:01:51;99190.09;;;25.29;61.21
24620;BME280;12763;55.802;37.404;2022-07-23T22:04:23;99187.41;;;25.24;61.03
24620;BME280;12763;55.802;37.404;2022-07-23T22:06:49;99182.41;;;25.21;61.10
24620;BME280;12763;55.802;37.404;2022-07-23T22:09:25;99188.56;;;25.23;61.23
24620;BME280;12763;55.802;37.404;2022-07-23T22:11:57;99186.88;;;25.22;60.76
24620;BME280;12763;55.802;37.404;2022-07-23T22:14:41;99188.16;;;25.16;61.12
24620;BME280;12763;55.802;37.404;2022-07-23T22:17:10;99189.34;;;25.15;60.59
24620;BME280;12763;55.802;37.404;2022-07-23T22:19:37;99181.25;;;25.22;60.14
24620;BME280;12763;55.802;37.404;2022-07-23T22:22:11;99186.44;;;25.29;60.03
24620;BME280;12763;55.802;37.404;2022-07-23T22:24:43;99187.88;;;25.18;60.46
24620;BME280;12763;55.802;37.404;2022-07-23T22:27:10;99187.31;;;25.07;60.60
24620;BME280;12763;55.802;37.404;2022-07-23T22:29:42;99192.06;;;24.98;60.86
24620;BME280;12763;55.802;37.404;2022-07-23T22:32:42;99192.69;;;24.95;61.47
24620;BME280;12763;55.802;37.404;2022-07-23T22:35:26;99196.66;;;24.94;61.65
24620;BME280;12763;55.802;37.404;2022-07-23T22:37:55;99189.44;;;24.79;61.90
24620;BME280;12763;55.802;37.404;2022-07-23T22:40:27;99187.78;;;24.65;63.27
24620;BME280;12763;55.802;37.404;2022-07-23T22:42:56;99196.28;;;24.51;63.72
24620;BME280;12763;55.802;37.404;2022-07-23T22:49:27;99196.06;;;24.47;64.82
24620;BME280;12763;55.802;37.404;2022-07-23T22:51:56;99191.03;;;24.58;64.20
24620;BME280;12763;55.802;37.404;2022-07-23T22:54:22;99187.00;;;24.50;64.54
24620;BME280;12763;55.802;37.404;2022-07-23T22:56:54;99192.63;;;24.50;65.35
24620;BME280;12763;55.802;37.404;2022-07-23T22:59:26;99183.66;;;24.48;65.49
24620;BME280;12763;55.802;37.404;2022-07-23T23:01:56;99184.09;;;24.42;65.42
24620;BME280;12763;55.802;37.404;2022-07-23T23:04:25;99189.63;;;24.33;65.98
24620;BME280;12763;55.802;37.404;2022-07-23T23:06:56;99187.91;;;24.24;65.84
24620;BME280;12763;55.802;37.404;2022-07-23T23:09:22;99190.31;;;24.17;65.93
24620;BME280;12763;55.802;37.404;2022-07-23T23:11:54;99185.50;;;24.17;65.95
24620;BME280;12763;55.802;37.404;2022-07-23T23:14:26;99187.56;;;24.25;65.69
24620;BME280;12763;55.802;37.404;2022-07-23T23:17:02;99181.13;;;24.11;66.51
24620;BME280;12763;55.802;37.404;2022-07-23T23:19:28;99192.28;;;23.89;67.00
24620;BME280;12763;55.802;37.404;2022-07-23T23:22:19;99189.16;;;24.04;66.37
24620;BME280;12763;55.802;37.404;2022-07-23T23:24:45;99186.75;;;23.97;65.70
24620;BME280;12763;55.802;37.404;2022-07-23T23:27:17;99178.84;;;24.13;65.36
24620;BME280;12763;55.802;37.404;2022-07-23T23:29:52;99178.94;;;24.08;65.46
24620;BME280;12763;55.802;37.404;2022-07-23T23:32:18;99183.53;;;23.90;66.19
24620;BME280;12763;55.802;37.404;2022-07-23T23:34:50;99180.38;;;23.92;65.67
24620;BME280;12763;55.802;37.404;2022-07-23T23:37:22;99178.41;;;23.92;65.64
24620;BME280;12763;55.802;37.404;2022-07-23T23:39:54;99183.13;;;23.97;65.30
24620;BME280;12763;55.802;37.404;2022-07-23T23:42:48;99188.53;;;23.93;66.12
24620;BME280;12763;55.802;37.404;2022-07-23T23:45:14;99180.22;;;23.88;65.68
24620;BME280;12763;55.802;37.404;2022-07-23T23:54:55;99178.63;;;23.96;65.55